Flight Track Log - Related Links

Times and Time Zones

All times are in EDT time to prevent confusion due to time zone crossing. See the N6797J flight status page for this flight to view local times or setup timezone preferences in your user account.

Time Position Orientation Groundspeed Altitude Reporting Facility
EDT Latitude Longitude Course Direction KTS MPH feet Rate Location/Type
Wed 02:14:51 PM 37.9758 -84.6731 166° South 149 171 3,900  Level Indianapolis Center
Wed 02:15:53 PM 37.9464 -84.7031 219° Southwest 142 163 5,600 1,610 Climbing Indianapolis Center
Wed 02:16:54 PM 37.9133 -84.7281 211° Southwest 145 167 7,200 1,463 Climbing Indianapolis Center
Wed 02:17:56 PM 37.8700 -84.7103 162° South 162 186 8,600 1,355 Climbing Indianapolis Center
Wed 02:18:58 PM 37.8225 -84.6914 163° South 177 204 10,000 1,548 Climbing Indianapolis Center
Wed 02:19:00 PM 37.6651 -84.4916 166° South  Level Estimated
Wed 02:20:00 PM 37.6031 -84.4722 166° South  Level Estimated
Wed 02:20:00 PM 37.7656 -84.6692 163° South 182 209 11,800  Level Indianapolis Center
Wed 02:21:02 PM 37.7164 -84.6508 164° South 183 211 13,100 1,268 Climbing Indianapolis Center
Wed 02:22:03 PM 37.6664 -84.6419 172° South 181 208 14,400 1,220 Climbing Indianapolis Center
Wed 02:23:05 PM 37.6156 -84.6428 181° South 181 208 15,600 1,210 Climbing Indianapolis Center
Wed 02:24:07 PM 37.5658 -84.6403 178° South 179 206 16,900 1,065 Climbing Indianapolis Center
Wed 02:25:09 PM 37.5147 -84.6361 176° South 182 209 17,800 919 Climbing Indianapolis Center
Wed 02:26:11 PM 37.4547 -84.6333 178° South 182 209 18,800 871 Climbing Indianapolis Center
Wed 02:27:13 PM 37.4019 -84.6314 178° South 188 216 19,600 780 Climbing Indianapolis Center
Wed 02:28:14 PM 37.3494 -84.6358 184° South 188 216 20,400 732 Climbing Indianapolis Center
Wed 02:29:16 PM 37.2978 -84.6433 187° South 187 215 21,100 581 Climbing Indianapolis Center
Wed 02:30:18 PM 37.2442 -84.6503 186° South 193 222 21,600 532 Climbing Indianapolis Center
Wed 02:31:20 PM 37.1786 -84.6569 185° South 202 232 22,200 532 Climbing Indianapolis Center
Wed 02:32:22 PM 37.1217 -84.6633 185° South 205 236 22,700 532 Climbing Indianapolis Center
Wed 02:33:24 PM 37.0650 -84.6706 186° South 206 237 23,300 537 Climbing Indianapolis Center
Wed 02:34:25 PM 37.0083 -84.6800 188° South 203 234 23,800 439 Climbing Indianapolis Center
Wed 02:35:27 PM 36.9525 -84.6883 187° South 202 232 24,200 435 Climbing Indianapolis Center
Wed 02:36:29 PM 36.8947 -84.6978 187° South 207 238 24,700 387 Climbing Indianapolis Center
Wed 02:37:31 PM 36.8364 -84.7081 188° South 211 243 25,000 194 Climbing Indianapolis Center
Wed 02:38:33 PM 36.7619 -84.7069 179° South 222 255 25,100 48 Climbing Indianapolis Center
Wed 02:39:35 PM 36.6961 -84.7011 176° South 233 268 25,100  Level Indianapolis Center
Wed 02:40:36 PM 36.6283 -84.6933 175° South 241 277 25,100  Level Indianapolis Center
Wed 02:41:38 PM 36.5603 -84.6881 176° South 244 281 25,100  Level Indianapolis Center
Wed 02:42:40 PM 36.4922 -84.6817 176° South 245 282 25,100  Level Indianapolis Center
Wed 02:43:42 PM 36.4244 -84.6750 175° South 244 281 25,100  Level Indianapolis Center
Wed 02:44:44 PM 36.3564 -84.6692 176° South 244 281 25,100  Level Indianapolis Center
Wed 02:45:46 PM 36.2742 -84.6622 176° South 246 283 25,100  Level Indianapolis Center
Wed 02:46:48 PM 36.2050 -84.6558 176° South 247 284 25,100  Level Indianapolis Center
Wed 02:47:50 PM 36.1361 -84.6497 176° South 247 284 25,100  Level Indianapolis Center
Wed 02:48:51 PM 36.0664 -84.6433 176° South 248 285 25,100  Level Indianapolis Center
Wed 02:49:53 PM 35.9958 -84.6369 176° South 251 289 25,100  Level Indianapolis Center
Wed 02:50:55 PM 35.9247 -84.6314 176° South 253 291 25,100  Level Indianapolis Center
Wed 02:51:57 PM 35.8531 -84.6244 176° South 255 293 25,100  Level Indianapolis Center
Wed 02:52:59 PM 35.7811 -84.6181 176° South 256 295 25,100  Level Indianapolis Center
Wed 02:54:18 PM 35.6772 -84.6114 177° South 254 292 25,100  Level Atlanta Center
Wed 02:55:18 PM 35.6064 -84.6058 176° South 254 292 25,100  Level Atlanta Center
Wed 02:56:18 PM 35.5356 -84.5975 175° South 254 292 25,100  Level Atlanta Center
Wed 02:57:18 PM 35.4647 -84.5919 176° South 254 292 25,100  Level Atlanta Center
Wed 02:58:18 PM 35.3958 -84.5867 176° South 254 292 25,100  Level Atlanta Center
Wed 02:59:18 PM 35.3228 -84.5808 176° South 254 292 25,100  Level Atlanta Center
Wed 03:00:18 PM 35.2519 -84.5753 176° South 254 292 25,100  Level Atlanta Center
Wed 03:01:18 PM 35.1808 -84.5700 177° South 254 292 25,100  Level Atlanta Center
Wed 03:02:18 PM 35.1100 -84.5642 176° South 254 292 25,100  Level Atlanta Center
Wed 03:03:18 PM 35.0411 -84.5564 175° South 254 292 25,100  Level Atlanta Center
Wed 03:04:18 PM 34.9703 -84.5508 176° South 254 292 25,100  Level Atlanta Center
Wed 03:05:18 PM 34.8994 -84.5453 176° South 254 292 25,100  Level Atlanta Center
Wed 03:06:18 PM 34.8283 -84.5397 176° South 254 292 25,100  Level Atlanta Center
Wed 03:07:18 PM 34.7594 -84.5342 176° South 254 292 25,100  Level Atlanta Center
Wed 03:08:18 PM 34.6908 -84.5264 175° South 254 292 25,100  Level Atlanta Center
Wed 03:09:18 PM 34.6197 -84.5183 175° South 254 292 25,100  Level Atlanta Center
Wed 03:10:18 PM 34.5508 -84.5131 176° South 254 292 25,100  Level Atlanta Center
Wed 03:11:18 PM 34.4800 -84.5075 176° South 254 292 25,100 -50 Level Atlanta Center
Wed 03:12:18 PM 34.4111 -84.5019 176° South 249 287 25,000  Descending Atlanta Center
Wed 03:13:18 PM 34.3506 -84.4967 176° South 249 287 25,100 50 Climbing Atlanta Center
Wed 03:14:18 PM 34.2819 -84.4939 178° South 249 287 25,100  Level Atlanta Center
Wed 03:15:18 PM 34.2172 -84.4858 174° South 249 287 25,100 -50 Level Atlanta Center
Wed 03:16:18 PM 34.1483 -84.4806 176° South 249 287 25,000  Descending Atlanta Center
Wed 03:17:18 PM 34.0794 -84.4678 171° South 254 292 25,100 50 Climbing Atlanta Center
Wed 03:18:18 PM 34.0192 -84.4372 157° South 254 292 25,100  Level Atlanta Center
Wed 03:19:18 PM 33.9544 -84.4019 156° South 246 283 25,100  Level Atlanta Center
Wed 03:20:18 PM 33.8919 -84.3742 160° South 246 283 25,100  Level Atlanta Center
Wed 03:21:18 PM 33.8336 -84.3464 158° South 246 283 25,100  Level Atlanta Center
Wed 03:22:18 PM 33.7647 -84.3136 158° South 248 285 25,100  Level Atlanta Center
Wed 03:23:18 PM 33.6939 -84.2858 162° South 257 296 25,100  Level Atlanta Center
Wed 03:24:18 PM 33.6314 -84.2533 157° South 246 283 25,100  Level Atlanta Center
Wed 03:25:18 PM 33.5728 -84.2258 159° South 246 283 25,100  Level Atlanta Center
Wed 03:26:18 PM 33.5103 -84.1958 158° South 246 283 25,100  Level Atlanta Center
Wed 03:27:18 PM 33.4478 -84.1683 160° South 246 283 25,100  Level Atlanta Center
Wed 03:28:18 PM 33.3831 -84.1408 160° South 251 289 25,100  Level Atlanta Center
Wed 03:29:18 PM 33.3142 -84.1083 158° South 251 289 25,100  Level Atlanta Center
Wed 03:30:18 PM 33.2475 -84.0811 161° South 251 289 25,100  Level Atlanta Center
Wed 03:31:18 PM 33.1869 -84.0511 157° South 245 282 25,100  Level Atlanta Center
Wed 03:32:18 PM 33.1222 -84.0214 159° South 250 288 25,100  Level Atlanta Center
Wed 03:33:18 PM 33.0594 -83.9942 160° South 245 282 25,100  Level Atlanta Center
Wed 03:34:18 PM 32.9989 -83.9619 156° South 245 282 25,100  Level Atlanta Center
Wed 03:35:18 PM 32.9342 -83.9325 159° South 245 282 25,100  Level Atlanta Center
Wed 03:36:18 PM 32.8736 -83.9078 161° South 245 282 25,100  Level Atlanta Center
Wed 03:37:18 PM 32.8111 -83.8781 158° South 245 282 25,100  Level Atlanta Center
Wed 03:38:18 PM 32.7442 -83.8611 168° South 245 282 25,100  Level Atlanta Center
Wed 03:39:18 PM 32.6794 -83.8489 171° South 240 276 25,100  Level Atlanta Center
Wed 03:40:18 PM 32.6147 -83.8367 171° South 240 276 25,100  Level Atlanta Center
Wed 03:41:18 PM 32.5478 -83.8244 171° South 240 276 25,100  Level Atlanta Center
Wed 03:42:18 PM 32.4831 -83.8147 173° South 240 276 25,100  Level Atlanta Center
Wed 03:43:18 PM 32.4183 -83.8050 173° South 240 276 25,100  Level Atlanta Center
Wed 03:44:18 PM 32.3494 -83.7931 172° South 240 276 25,100  Level Atlanta Center
Wed 03:45:18 PM 32.2847 -83.7808 171° South 240 276 25,100  Level Atlanta Center
Wed 03:46:18 PM 32.2200 -83.7711 173° South 240 276 25,100  Level Atlanta Center
Wed 03:47:18 PM 32.1553 -83.7617 173° South 240 276 25,100  Level Atlanta Center
Wed 03:48:18 PM 32.0906 -83.7497 171° South 240 276 25,100  Level Atlanta Center
Wed 03:49:18 PM 32.0258 -83.7278 164° South 240 276 25,100  Level Atlanta Center
Wed 03:50:18 PM 31.9653 -83.6961 156° South 235 270 25,100  Level Atlanta Center
Wed 03:51:18 PM 31.9089 -83.6694 158° South 241 277 25,100  Level Atlanta Center
Wed 03:52:18 PM 31.8461 -83.6378 157° South 241 277 25,100 -44 Level Atlanta Center
Wed 03:53:35 PM 31.7658 -83.6011 159° South 242 278 25,000  Descending Jacksonville Center
Wed 03:54:35 PM 31.6972 -83.5617 154° Southeast 247 284 25,100 50 Climbing Jacksonville Center
Wed 03:55:35 PM 31.6347 -83.5319 158° South 252 290 25,100  Level Jacksonville Center
Wed 03:56:35 PM 31.5742 -83.5022 157° South 252 290 25,100  Level Jacksonville Center
Wed 03:57:35 PM 31.5139 -83.4725 157° South 246 283 25,100  Level Jacksonville Center
Wed 03:58:36 PM 31.4533 -83.4381 154° Southeast 246 283 25,100  Level Jacksonville Center
Wed 03:59:35 PM 31.3972 -83.3989 149° Southeast 241 277 25,100  Level Jacksonville Center
Wed 04:00:35 PM 31.3389 -83.3597 150° Southeast 241 277 25,100  Level Jacksonville Center
Wed 04:01:35 PM 31.2783 -83.3203 151° Southeast 241 277 25,100  Level Jacksonville Center
Wed 04:02:35 PM 31.2200 -83.2814 150° Southeast 247 284 25,100  Level Jacksonville Center
Wed 04:03:35 PM 31.1597 -83.2397 149° Southeast 247 284 25,100  Level Jacksonville Center
Wed 04:04:35 PM 31.1014 -83.2008 150° Southeast 247 284 25,100  Level Jacksonville Center
Wed 04:05:35 PM 31.0431 -83.1617 150° Southeast 247 284 25,100  Level Jacksonville Center
Wed 04:06:35 PM 30.9908 -83.1278 151° Southeast 247 284 25,100  Level Jacksonville Center
Wed 04:07:35 PM 30.9325 -83.0889 150° Southeast 247 284 25,100  Level Jacksonville Center
Wed 04:08:36 PM 30.8719 -83.0475 150° Southeast 247 284 25,100 -50 Level Jacksonville Center
Wed 04:09:36 PM 30.8156 -83.0064 148° Southeast 247 284 25,000 -50 Descending Jacksonville Center
Wed 04:10:35 PM 30.7550 -82.9675 151° Southeast 247 284 25,000  Level Jacksonville Center
Wed 04:11:35 PM 30.6903 -82.9264 151° Southeast 247 284 25,000  Level Jacksonville Center
Wed 04:12:35 PM 30.6297 -82.8903 153° Southeast 247 284 25,000  Level Jacksonville Center
Wed 04:13:35 PM 30.5714 -82.8492 149° Southeast 247 284 25,000  Level Jacksonville Center
Wed 04:14:35 PM 30.5192 -82.8106 148° Southeast 247 284 25,000 -150 Level Jacksonville Center
Wed 04:15:35 PM 30.4586 -82.7719 151° Southeast 247 284 24,700 -450 Descending Jacksonville Center
Wed 04:16:35 PM 30.3958 -82.7289 149° Southeast 252 290 24,100 -600 Descending Jacksonville Center
Wed 04:17:35 PM 30.3353 -82.6881 150° Southeast 252 290 23,500 -500 Descending Jacksonville Center
Wed 04:18:35 PM 30.2725 -82.6519 154° Southeast 252 290 23,100 -200 Descending Jacksonville Center
Wed 04:19:35 PM 30.2056 -82.6114 152° Southeast 247 284 23,100  Level Jacksonville Center
Wed 04:20:35 PM 30.1450 -82.5683 148° Southeast 247 284 23,100  Level Jacksonville Center
Wed 04:21:35 PM 30.0864 -82.5228 146° Southeast 247 284 23,100  Level Jacksonville Center
Wed 04:22:35 PM 30.0258 -82.4800 149° Southeast 252 290 23,100  Level Jacksonville Center
Wed 04:23:35 PM 29.9733 -82.4322 142° Southeast 261 300 23,100  Level Jacksonville Center
Wed 04:24:36 PM 29.9106 -82.3942 152° Southeast 261 300 23,100 -250 Level Jacksonville Center
Wed 04:25:35 PM 29.8478 -82.3514 149° Southeast 256 295 22,600 -706 Descending Jacksonville Center
Wed 04:26:35 PM 29.7789 -82.3133 154° Southeast 246 283 21,700 -950 Descending Jacksonville Center
Wed 04:27:35 PM 29.7222 -82.2756 150° Southeast 246 283 20,700 -1,000 Descending Jacksonville Center
Wed 04:28:35 PM 29.6594 -82.2378 152° Southeast 251 289 19,700 -800 Descending Jacksonville Center
Wed 04:29:35 PM 29.5922 -82.1953 151° Southeast 251 289 19,100 -298 Descending Jacksonville Center
Wed 04:30:36 PM 29.5317 -82.1575 152° Southeast 251 289 19,100 -550 Level Jacksonville Center
Wed 04:31:35 PM 29.4647 -82.1556 179° South 234 269 18,000 -1,059 Descending Jacksonville Center
Wed 04:32:35 PM 29.3917 -82.1464 174° South 246 283 17,000 -496 Descending Jacksonville Center
Wed 04:33:36 PM 29.3247 -82.1375 173° South 252 290 17,000 -150 Level Jacksonville Center
Wed 04:34:35 PM 29.2558 -82.1333 177° South 252 290 16,700 -504 Descending Jacksonville Center
Wed 04:35:35 PM 29.1892 -82.1242 173° South 252 290 16,000 -893 Descending Jacksonville Center
Wed 04:36:36 PM 29.1244 -82.1200 177° South 252 290 14,900 -992 Descending Jacksonville Center
Wed 04:37:36 PM 29.0575 -82.1158 177° South 252 290 14,000 -958 Descending Jacksonville Center
Wed 04:38:35 PM 28.9928 -82.1067 173° South 252 290 13,000 -1,059 Descending Jacksonville Center
Wed 04:39:35 PM 28.9239 -82.1050 179° South 247 284 11,900 -597 Descending Jacksonville Center
Wed 04:41:56 PM 28.7667 -82.0833 173° South 239 275 11,000 -261 Descending Tampa TRACON
Wed 04:43:02 PM 28.7000 -82.0833 180° South 237 273 11,000  Level Tampa TRACON
Wed 04:44:02 PM 28.6333 -82.0833 180° South 240 276 11,000 -300 Level Tampa TRACON
Wed 04:45:02 PM 28.5667 -82.0667 168° South 231 266 10,400 -750 Descending Tampa TRACON
Wed 04:46:02 PM 28.5000 -82.0667 180° South 222 255 9,500 -1,105 Descending Tampa TRACON
Wed 04:46:56 PM 28.4500 -82.0667 180° South 217 250 8,300 -1,579 Descending Tampa TRACON
Wed 04:47:56 PM 28.3833 -82.0667 180° South 211 243 6,500 -1,800 Descending Tampa TRACON
Wed 04:48:56 PM 28.3333 -82.0667 180° South 214 246 4,700 -1,736 Descending Tampa TRACON
Wed 04:49:57 PM 28.2667 -82.0667 180° South 207 238 3,000 -992 Descending Tampa TRACON
Wed 04:50:57 PM 28.2167 -82.0333 150° Southeast 197 227 2,700 -300 Descending Tampa TRACON

Login

Don't have an account? Register now (free) for customized features, flight alerts, and more!